createdAt,value
2023-04-14T00:00:14.292Z,8.76
2023-04-14T00:02:46.372Z,8.80
2023-04-14T00:05:17.172Z,8.75
2023-04-14T00:07:48.257Z,8.74
2023-04-14T00:10:22.340Z,8.75
2023-04-14T00:12:54.916Z,8.90
2023-04-14T00:15:28.252Z,8.95
2023-04-14T00:17:59.026Z,9.02
2023-04-14T00:20:29.580Z,8.98
2023-04-14T00:23:00.557Z,9.10
2023-04-14T00:25:31.989Z,9.00
2023-04-14T00:28:06.253Z,9.06
2023-04-14T00:30:38.434Z,9.06
2023-04-14T00:33:09.157Z,9.08
2023-04-14T00:35:41.501Z,9.03
2023-04-14T00:38:14.145Z,9.14
2023-04-14T00:40:47.184Z,9.16
2023-04-14T00:43:19.884Z,8.94
2023-04-14T00:45:52.572Z,9.02
2023-04-14T00:48:26.513Z,8.92
2023-04-14T00:50:58.711Z,8.94
2023-04-14T00:53:34.766Z,8.88
2023-04-14T00:56:05.703Z,8.95
2023-04-14T00:58:36.724Z,8.88
2023-04-14T01:01:08.237Z,8.86
2023-04-14T01:03:42.353Z,8.71
2023-04-14T01:06:14.864Z,8.76
2023-04-14T01:08:50.351Z,8.72
2023-04-14T01:11:43.612Z,8.79
2023-04-14T01:14:29.478Z,8.74
2023-04-14T01:17:06.250Z,8.74
2023-04-14T01:19:58.117Z,8.75
2023-04-14T01:22:31.717Z,8.79
2023-04-14T01:25:31.488Z,8.72
2023-04-14T01:28:21.123Z,8.91
2023-04-14T01:31:11.882Z,8.94
2023-04-14T01:33:47.539Z,8.91
2023-04-14T01:36:22.536Z,8.90
2023-04-14T01:38:55.561Z,8.90
2023-04-14T01:41:28.392Z,8.83
2023-04-14T01:44:04.345Z,8.86
2023-04-14T01:46:37.033Z,8.80
2023-04-14T01:49:08.286Z,8.82
2023-04-14T01:51:43.165Z,8.80
2023-04-14T01:54:18.623Z,8.80
2023-04-14T01:56:53.148Z,8.84
2023-04-14T01:59:26.236Z,8.90
2023-04-14T02:01:59.705Z,8.88
2023-04-14T02:04:42.479Z,8.86
2023-04-14T02:07:13.491Z,8.82
2023-04-14T02:09:46.025Z,8.81
2023-04-14T02:12:19.424Z,8.81
2023-04-14T02:14:52.280Z,8.81
2023-04-14T02:17:24.412Z,8.78
2023-04-14T02:19:58.358Z,8.82
2023-04-14T02:22:29.312Z,8.90
2023-04-14T02:25:00.137Z,8.70
2023-04-14T02:27:34.895Z,8.67
2023-04-14T02:30:17.689Z,8.77
2023-04-14T02:32:53.043Z,8.68
2023-04-14T02:35:29.204Z,8.68
2023-04-14T02:38:03.254Z,8.81
2023-04-14T02:40:37.887Z,8.65
2023-04-14T02:43:14.516Z,8.66
2023-04-14T02:45:49.143Z,8.72
2023-04-14T02:48:25.386Z,8.56
2023-04-14T02:50:59.212Z,8.66
2023-04-14T02:53:31.482Z,8.46
2023-04-14T02:56:04.417Z,8.46
2023-04-14T02:58:36.293Z,8.60
2023-04-14T03:01:08.190Z,8.55
2023-04-14T03:03:41.973Z,8.65
2023-04-14T03:06:15.847Z,8.49
2023-04-14T03:08:49.473Z,8.64
2023-04-14T03:11:22.940Z,8.65
2023-04-14T03:13:56.293Z,8.62
2023-04-14T03:16:30.483Z,8.66
2023-04-14T03:19:03.009Z,8.71
2023-04-14T03:21:36.538Z,8.68
2023-04-14T03:24:08.065Z,8.54
2023-04-14T03:26:39.964Z,8.60
2023-04-14T03:29:11.560Z,8.62
2023-04-14T03:31:46.558Z,8.52
2023-04-14T03:34:23.167Z,8.53
2023-04-14T03:36:54.931Z,8.46
2023-04-14T03:39:31.450Z,8.53
2023-04-14T03:42:03.930Z,8.44
2023-04-14T03:44:41.534Z,8.32
2023-04-14T03:47:13.679Z,8.54
2023-04-14T03:49:48.155Z,8.48
2023-04-14T03:52:21.173Z,8.46
2023-04-14T03:54:53.946Z,8.26
2023-04-14T03:57:27.324Z,8.34
2023-04-14T04:00:00.362Z,8.24
2023-04-14T04:02:32.219Z,8.28
2023-04-14T04:05:03.549Z,8.31
2023-04-14T04:07:36.099Z,8.28
2023-04-14T04:10:08.819Z,8.34
2023-04-14T04:12:42.725Z,8.36
2023-04-14T04:15:14.498Z,8.34
2023-04-14T04:17:46.524Z,8.33
2023-04-14T04:20:19.660Z,8.39
2023-04-14T04:22:53.768Z,8.48
2023-04-14T04:25:26.462Z,8.34
2023-04-14T04:27:58.082Z,8.40
2023-04-14T04:30:32.595Z,8.44
2023-04-14T04:33:05.704Z,8.46
2023-04-14T04:35:37.612Z,8.42
2023-04-14T04:38:10.050Z,8.36
2023-04-14T04:40:41.927Z,8.50
2023-04-14T04:43:12.660Z,8.55
2023-04-14T04:46:01.461Z,8.47
2023-04-14T04:48:32.149Z,8.38
2023-04-14T04:51:02.868Z,8.32
2023-04-14T04:53:33.439Z,8.48
2023-04-14T04:56:04.239Z,8.49
2023-04-14T04:58:34.881Z,8.62
2023-04-14T05:01:13.014Z,8.67
2023-04-14T05:03:43.804Z,8.60
2023-04-14T05:06:14.658Z,8.56
2023-04-14T05:08:45.290Z,8.43
2023-04-14T05:11:15.964Z,8.58
2023-04-14T05:13:47.627Z,8.59
2023-04-14T05:16:19.915Z,8.66
2023-04-14T05:18:51.532Z,8.57
2023-04-14T05:21:22.415Z,8.60
2023-04-14T05:23:53.302Z,8.73
2023-04-14T05:28:59.055Z,8.76
2023-04-14T05:31:33.008Z,8.55
2023-04-14T05:34:05.859Z,8.44
2023-04-14T05:36:38.545Z,8.50
2023-04-14T05:39:09.157Z,8.52
2023-04-14T05:41:41.719Z,8.59
2023-04-14T05:44:12.408Z,8.84
2023-04-14T05:46:44.308Z,8.71
2023-04-14T05:49:15.118Z,8.76
2023-04-14T05:51:48.770Z,8.95
2023-04-14T05:54:19.264Z,9.00
2023-04-14T05:56:50.213Z,9.07
2023-04-14T05:59:20.887Z,8.82
2023-04-14T06:01:53.078Z,9.07
2023-04-14T06:04:24.097Z,8.93
2023-04-14T06:06:54.740Z,8.98
2023-04-14T06:09:28.353Z,8.93
2023-04-14T06:12:00.743Z,9.00
2023-04-14T06:14:32.971Z,9.05
2023-04-14T06:17:05.046Z,8.97
2023-04-14T06:19:35.697Z,9.08
2023-04-14T06:22:08.246Z,9.12
2023-04-14T06:24:38.823Z,9.11
2023-04-14T06:27:10.748Z,9.02
2023-04-14T06:29:41.867Z,9.25
2023-04-14T06:32:12.879Z,9.26
2023-04-14T06:34:45.050Z,9.14
2023-04-14T06:37:18.760Z,9.13
2023-04-14T06:39:51.866Z,9.08
2023-04-14T06:42:22.513Z,9.15
2023-04-14T06:44:54.406Z,9.12
2023-04-14T06:47:26.907Z,8.94
2023-04-14T06:49:59.486Z,9.11
2023-04-14T06:52:30.803Z,9.15
2023-04-14T06:55:02.009Z,9.16
2023-04-14T06:57:32.522Z,9.40
2023-04-14T07:00:06.683Z,9.26
2023-04-14T07:02:37.751Z,9.08
2023-04-14T07:05:11.610Z,9.27
2023-04-14T07:07:42.266Z,9.23
2023-04-14T07:10:16.892Z,9.30
2023-04-14T07:12:49.050Z,9.45
2023-04-14T07:15:19.863Z,9.28
2023-04-14T07:17:52.044Z,9.17
2023-04-14T07:20:24.990Z,9.12
2023-04-14T07:22:56.053Z,9.14
2023-04-14T07:25:28.202Z,9.30
2023-04-14T07:28:03.471Z,9.24
2023-04-14T07:30:31.911Z,9.35
2023-04-14T07:33:03.105Z,9.44
2023-04-14T07:35:33.860Z,9.55
2023-04-14T07:38:04.479Z,9.45
2023-04-14T07:40:38.253Z,9.46
2023-04-14T07:43:08.764Z,9.50
2023-04-14T07:45:40.232Z,9.36
2023-04-14T07:48:11.323Z,9.29
2023-04-14T07:50:45.806Z,9.04
2023-04-14T07:53:16.336Z,9.01
2023-04-14T07:55:47.239Z,8.86
2023-04-14T07:58:17.788Z,9.14
2023-04-14T08:00:49.386Z,8.99
2023-04-14T08:03:20.537Z,9.04
2023-04-14T08:05:51.559Z,9.14
2023-04-14T08:08:23.213Z,9.08
2023-04-14T08:10:53.713Z,8.90
2023-04-14T08:13:25.662Z,8.77
2023-04-14T08:15:56.174Z,8.75
2023-04-14T08:18:26.879Z,8.70
2023-04-14T08:20:57.721Z,8.64
2023-04-14T08:23:28.630Z,8.56
2023-04-14T08:25:59.178Z,8.64
2023-04-14T08:28:30.381Z,8.67
2023-04-14T08:31:01.596Z,8.62
2023-04-14T08:33:33.715Z,8.48
2023-04-14T08:36:04.634Z,8.50
2023-04-14T08:38:36.744Z,8.54
2023-04-14T08:41:09.547Z,8.50
2023-04-14T08:43:42.064Z,8.74
2023-04-14T08:46:14.796Z,8.72
2023-04-14T08:48:50.395Z,8.63
2023-04-14T08:51:29.692Z,8.58
2023-04-14T08:54:04.768Z,8.60
2023-04-14T08:56:41.473Z,8.87
2023-04-14T08:59:12.894Z,9.05
2023-04-14T09:01:44.224Z,8.92
2023-04-14T09:04:17.155Z,8.89
2023-04-14T09:06:48.634Z,8.86
2023-04-14T09:09:20.751Z,8.74
2023-04-14T09:11:52.302Z,8.78
2023-04-14T09:14:24.239Z,8.73
2023-04-14T09:16:57.002Z,8.77
2023-04-14T09:19:29.411Z,8.60
2023-04-14T09:22:01.241Z,8.60
2023-04-14T09:24:34.274Z,8.38
2023-04-14T09:27:08.203Z,8.46
2023-04-14T09:29:41.905Z,8.33
2023-04-14T09:32:16.092Z,8.29
2023-04-14T09:34:56.377Z,8.31
2023-04-14T09:37:27.157Z,8.37
2023-04-14T09:40:00.569Z,8.57
2023-04-14T09:42:38.957Z,8.52
2023-04-14T09:45:10.994Z,8.63
2023-04-14T09:47:43.974Z,8.69
2023-04-14T09:50:16.027Z,8.82
2023-04-14T09:52:48.579Z,8.70
2023-04-14T09:55:20.157Z,8.77
2023-04-14T09:57:52.315Z,8.95
2023-04-14T10:00:26.341Z,8.93
2023-04-14T10:03:03.351Z,9.00
2023-04-14T10:05:34.939Z,8.79
2023-04-14T10:08:07.379Z,8.79
2023-04-14T10:10:38.497Z,8.94
2023-04-14T10:13:09.328Z,9.00
2023-04-14T10:15:42.072Z,9.02
2023-04-14T10:18:12.733Z,8.72
2023-04-14T10:20:45.656Z,8.98
2023-04-14T10:23:16.776Z,8.88
2023-04-14T10:25:50.273Z,8.95
2023-04-14T10:28:21.856Z,9.06
2023-04-14T10:30:54.447Z,8.94
2023-04-14T10:33:26.093Z,8.81
2023-04-14T10:36:02.073Z,8.73
2023-04-14T10:38:43.513Z,8.60
2023-04-14T10:41:14.412Z,8.64
2023-04-14T10:43:45.921Z,8.62
2023-04-14T10:46:18.761Z,8.58
2023-04-14T10:48:50.647Z,8.58
2023-04-14T10:51:22.745Z,8.58
2023-04-14T10:53:57.090Z,8.40
2023-04-14T10:56:29.291Z,8.26
2023-04-14T10:59:00.283Z,8.44
2023-04-14T11:01:33.207Z,8.40
2023-04-14T11:04:20.916Z,8.36
2023-04-14T11:06:54.860Z,8.32
2023-04-14T11:09:38.964Z,8.54
2023-04-14T11:12:27.379Z,8.40
2023-04-14T11:15:00.989Z,8.40
2023-04-14T11:17:33.600Z,8.42
2023-04-14T11:20:15.777Z,8.26
2023-04-14T11:22:48.511Z,8.15
2023-04-14T11:25:24.090Z,8.15
2023-04-14T11:27:55.032Z,8.36
2023-04-14T11:30:28.656Z,8.32
2023-04-14T11:33:08.384Z,8.27
2023-04-14T11:35:41.849Z,8.20
2023-04-14T11:38:17.902Z,8.16
2023-04-14T11:40:52.520Z,8.12
2023-04-14T11:43:25.113Z,8.16
2023-04-14T11:45:55.713Z,8.08
2023-04-14T11:48:27.982Z,8.14
2023-04-14T11:51:01.657Z,8.14
2023-04-14T11:53:34.032Z,8.04
2023-04-14T11:56:07.857Z,8.06
2023-04-14T11:58:40.131Z,8.06
2023-04-14T12:01:13.074Z,8.12
2023-04-14T12:03:46.957Z,8.12
2023-04-14T12:06:19.670Z,8.02
2023-04-14T12:08:54.275Z,8.01
2023-04-14T12:11:25.341Z,8.00
2023-04-14T12:14:01.709Z,8.21
2023-04-14T12:16:34.025Z,8.02
2023-04-14T12:19:04.842Z,8.02
2023-04-14T12:21:37.888Z,7.88
2023-04-14T12:24:09.788Z,7.90
2023-04-14T12:26:42.295Z,7.93
2023-04-14T12:29:16.390Z,8.01
2023-04-14T12:31:47.060Z,7.96
2023-04-14T12:34:20.556Z,7.91
2023-04-14T12:36:54.880Z,7.92
2023-04-14T12:39:27.934Z,7.95
2023-04-14T12:42:01.679Z,7.89
2023-04-14T12:44:32.414Z,7.84
2023-04-14T12:47:08.373Z,7.86
2023-04-14T12:49:39.904Z,7.86
2023-04-14T12:52:13.011Z,7.98
2023-04-14T12:54:54.701Z,8.02
2023-04-14T12:57:26.045Z,7.92
2023-04-14T12:59:56.731Z,7.88
2023-04-14T13:02:33.555Z,7.95
2023-04-14T13:05:10.035Z,8.02
2023-04-14T13:07:44.184Z,7.98
2023-04-14T13:10:17.477Z,7.84
2023-04-14T13:12:49.556Z,7.89
2023-04-14T13:15:59.930Z,8.00
2023-04-14T13:17:56.303Z,8.02
2023-04-14T13:20:27.017Z,7.94
2023-04-14T13:22:58.230Z,7.92
2023-04-14T13:25:32.473Z,7.82
2023-04-14T13:28:03.049Z,7.75
2023-04-14T13:30:35.278Z,7.86
2023-04-14T13:33:06.029Z,8.00
2023-04-14T13:35:41.743Z,8.07
2023-04-14T13:38:12.514Z,8.05
2023-04-14T13:40:43.105Z,7.98
2023-04-14T13:43:18.156Z,7.94
2023-04-14T13:45:50.091Z,7.94
2023-04-14T13:48:21.017Z,7.80
2023-04-14T13:50:53.493Z,8.02
2023-04-14T13:53:25.806Z,7.98
2023-04-14T13:55:59.396Z,8.07
2023-04-14T13:58:31.404Z,8.20
2023-04-14T14:01:11.209Z,8.18
2023-04-14T14:03:46.419Z,8.12
2023-04-14T14:06:19.833Z,8.10
2023-04-14T14:09:05.128Z,8.12
2023-04-14T14:11:37.086Z,8.14
2023-04-14T14:14:07.533Z,8.20
2023-04-14T14:16:38.761Z,8.16
2023-04-14T14:19:11.338Z,8.15
2023-04-14T14:21:43.500Z,8.14
2023-04-14T14:24:18.739Z,8.16
2023-04-14T14:26:49.840Z,8.22
2023-04-14T14:29:21.836Z,8.30
2023-04-14T14:31:53.706Z,8.12
2023-04-14T14:34:24.277Z,8.29
2023-04-14T14:36:55.868Z,8.45
2023-04-14T14:39:26.936Z,8.25
2023-04-14T14:42:04.022Z,8.16
2023-04-14T14:44:36.897Z,8.40
2023-04-14T14:47:07.801Z,8.24
2023-04-14T14:49:49.256Z,8.14
2023-04-14T14:52:13.809Z,8.14
2023-04-14T14:54:44.396Z,8.22
2023-04-14T14:57:15.328Z,8.34
2023-04-14T14:59:45.815Z,8.20
2023-04-14T15:02:20.576Z,8.10
2023-04-14T15:04:53.259Z,8.12
2023-04-14T15:07:23.826Z,8.05
2023-04-14T15:09:54.218Z,7.98
2023-04-14T15:12:25.854Z,7.99
2023-04-14T15:14:58.109Z,7.87
2023-04-14T15:17:28.794Z,7.95
2023-04-14T15:20:01.437Z,7.91
2023-04-14T15:22:33.531Z,8.01
2023-04-14T15:25:09.338Z,7.88
2023-04-14T15:27:45.806Z,7.83
2023-04-14T15:30:17.067Z,7.79
2023-04-14T15:32:47.656Z,7.76
2023-04-14T15:35:18.595Z,7.88
2023-04-14T15:37:50.159Z,7.85
2023-04-14T15:40:21.372Z,7.90
2023-04-14T15:42:54.540Z,7.81
2023-04-14T15:45:26.606Z,7.84
2023-04-14T15:47:57.109Z,7.74
2023-04-14T15:50:33.343Z,7.75
2023-04-14T15:53:04.633Z,7.66
2023-04-14T15:55:38.027Z,7.69
2023-04-14T15:58:14.241Z,7.77
2023-04-14T16:00:45.912Z,7.76
2023-04-14T16:03:21.969Z,7.86
2023-04-14T16:06:02.897Z,7.78
2023-04-14T16:08:36.697Z,7.82
2023-04-14T16:11:10.322Z,7.77
2023-04-14T16:13:44.853Z,7.80
2023-04-14T16:16:18.597Z,7.79
2023-04-14T16:18:50.860Z,7.84
2023-04-14T16:21:21.331Z,7.83
2023-04-14T16:23:53.371Z,7.78
2023-04-14T16:26:25.710Z,7.75
2023-04-14T16:28:57.814Z,7.74
2023-04-14T16:31:29.734Z,7.78
2023-04-14T16:34:01.034Z,7.77
2023-04-14T16:36:33.292Z,7.76
2023-04-14T16:39:04.776Z,7.86
2023-04-14T16:41:38.785Z,7.78
2023-04-14T16:44:12.302Z,7.79
2023-04-14T16:46:44.151Z,7.81
2023-04-14T16:49:18.506Z,7.80
2023-04-14T16:51:50.304Z,7.72
2023-04-14T16:54:21.819Z,7.87
2023-04-14T16:56:53.115Z,7.84
2023-04-14T16:59:27.505Z,7.76
2023-04-14T17:02:01.883Z,7.69
2023-04-14T17:04:34.288Z,7.75
2023-04-14T17:07:05.066Z,7.74
2023-04-14T17:09:37.133Z,7.72
2023-04-14T17:12:09.311Z,7.76
2023-04-14T17:14:39.904Z,7.74
2023-04-14T17:17:13.430Z,7.76
2023-04-14T17:19:44.538Z,7.78
2023-04-14T17:22:15.528Z,7.68
2023-04-14T17:24:46.625Z,7.69
2023-04-14T17:27:17.779Z,7.82
2023-04-14T17:29:49.476Z,7.80
2023-04-14T17:32:20.710Z,7.74
2023-04-14T17:34:53.584Z,7.72
2023-04-14T17:37:25.324Z,7.69
2023-04-14T17:39:58.303Z,7.76
2023-04-14T17:42:30.538Z,7.81
2023-04-14T17:45:01.605Z,7.73
2023-04-14T17:47:34.700Z,7.66
2023-04-14T17:50:07.190Z,7.64
2023-04-14T17:52:37.751Z,7.58
2023-04-14T17:55:10.479Z,7.64
2023-04-14T17:57:45.201Z,7.60
2023-04-14T18:00:17.504Z,7.58
2023-04-14T18:02:52.203Z,7.60
2023-04-14T18:05:24.031Z,7.66
2023-04-14T18:07:59.971Z,7.68
2023-04-14T18:10:29.679Z,7.60
2023-04-14T18:13:01.883Z,7.64
2023-04-14T18:15:33.970Z,7.66
2023-04-14T18:18:04.678Z,7.80
2023-04-14T18:20:36.177Z,7.87
2023-04-14T18:23:08.522Z,7.77
2023-04-14T18:28:14.335Z,7.80
2023-04-14T18:30:47.474Z,7.80
2023-04-14T18:33:19.151Z,7.78
2023-04-14T18:35:54.278Z,7.84
2023-04-14T18:38:28.889Z,7.82
2023-04-14T18:41:05.757Z,7.75
2023-04-14T18:43:38.222Z,7.80
2023-04-14T18:46:10.348Z,7.82
2023-04-14T18:48:42.047Z,7.82
2023-04-14T18:51:15.046Z,7.87
2023-04-14T18:53:46.355Z,7.92
2023-04-14T18:56:17.949Z,7.77
2023-04-14T18:58:51.596Z,7.86
2023-04-14T19:01:22.605Z,7.86
2023-04-14T19:03:56.529Z,7.84
2023-04-14T19:06:28.095Z,7.79
2023-04-14T19:09:01.442Z,7.72
2023-04-14T19:11:37.812Z,7.62
2023-04-14T19:14:08.476Z,7.64
2023-04-14T19:16:44.108Z,7.61
2023-04-14T19:19:14.861Z,7.63
2023-04-14T19:21:45.486Z,7.70
2023-04-14T19:24:16.151Z,7.66
2023-04-14T19:26:47.151Z,7.58
2023-04-14T19:29:20.743Z,7.60
2023-04-14T19:31:53.396Z,7.58
2023-04-14T19:34:25.027Z,7.64
2023-04-14T19:36:57.460Z,7.66
2023-04-14T19:39:29.649Z,7.64
2023-04-14T19:42:01.634Z,7.62
2023-04-14T19:44:34.235Z,7.66
2023-04-14T19:47:04.952Z,7.56
2023-04-14T19:49:36.279Z,7.54
2023-04-14T19:52:06.738Z,7.52
2023-04-14T19:54:39.400Z,7.60
2023-04-14T19:57:11.544Z,7.65
2023-04-14T19:59:45.014Z,7.55
2023-04-14T20:02:16.578Z,7.57
2023-04-14T20:04:48.418Z,7.61
2023-04-14T20:07:19.480Z,7.57
2023-04-14T20:09:51.186Z,7.56
2023-04-14T20:12:25.950Z,7.56
2023-04-14T20:14:58.054Z,7.60
2023-04-14T20:17:29.176Z,7.60
2023-04-14T20:20:01.910Z,7.58
2023-04-14T20:22:34.106Z,7.60
2023-04-14T20:25:06.160Z,7.69
2023-04-14T20:27:38.978Z,7.63
2023-04-14T20:30:12.542Z,7.74
2023-04-14T20:32:43.691Z,8.06
2023-04-14T20:35:15.744Z,7.83
2023-04-14T20:37:48.378Z,7.93
2023-04-14T20:40:20.754Z,8.07
2023-04-14T20:42:54.896Z,7.82
2023-04-14T20:45:26.416Z,7.76
2023-04-14T20:47:57.530Z,7.80
2023-04-14T20:50:28.385Z,7.80
2023-04-14T20:53:01.489Z,7.77
2023-04-14T20:55:33.573Z,7.73
2023-04-14T20:58:07.008Z,7.74
2023-04-14T21:00:38.785Z,7.66
2023-04-14T21:03:10.081Z,7.68
2023-04-14T21:05:48.329Z,7.68
2023-04-14T21:08:19.881Z,7.68
2023-04-14T21:11:15.566Z,7.68
2023-04-14T21:15:29.324Z,7.69
2023-04-14T21:15:58.548Z,7.72
2023-04-14T21:18:29.068Z,7.64
2023-04-14T21:21:02.049Z,7.66
2023-04-14T21:23:35.165Z,7.70
2023-04-14T21:26:09.137Z,7.68
2023-04-14T21:28:46.799Z,7.72
2023-04-14T21:31:17.583Z,7.73
2023-04-14T21:33:51.662Z,7.69
2023-04-14T21:36:24.704Z,7.69
2023-04-14T21:38:57.841Z,7.68
2023-04-14T21:41:33.451Z,7.70
2023-04-14T21:44:06.322Z,7.73
2023-04-14T21:46:40.764Z,7.75
2023-04-14T21:49:14.271Z,7.85
2023-04-14T21:51:47.452Z,7.76
2023-04-14T21:54:20.115Z,7.78
2023-04-14T21:56:51.600Z,7.76
2023-04-14T21:59:22.714Z,7.76
2023-04-14T22:01:53.393Z,7.78
2023-04-14T22:04:35.962Z,7.81
2023-04-14T22:07:01.908Z,7.92
2023-04-14T22:09:34.055Z,7.96
2023-04-14T22:12:07.266Z,8.10
2023-04-14T22:14:37.850Z,7.97
2023-04-14T22:17:09.603Z,8.00
2023-04-14T22:19:41.762Z,7.98
2023-04-14T22:22:12.751Z,7.99
2023-04-14T22:24:45.134Z,8.00
2023-04-14T22:27:16.660Z,7.94
2023-04-14T22:29:51.749Z,8.03
2023-04-14T22:32:23.835Z,7.99
2023-04-14T22:37:18.018Z,8.00
2023-04-14T22:39:50.482Z,8.02
2023-04-14T22:42:21.219Z,7.96
2023-04-14T22:44:55.066Z,8.08
2023-04-14T22:47:28.346Z,7.98
2023-04-14T22:50:00.364Z,7.98
2023-04-14T22:52:33.874Z,8.00
2023-04-14T22:55:09.211Z,7.94
2023-04-14T22:57:41.081Z,8.02
2023-04-14T23:00:13.291Z,7.99
2023-04-14T23:02:53.111Z,8.04
2023-04-14T23:05:26.122Z,8.04
2023-04-14T23:08:05.785Z,8.03
2023-04-14T23:10:37.420Z,8.07
2023-04-14T23:13:08.338Z,8.06
2023-04-14T23:15:41.070Z,7.99
2023-04-14T23:18:12.512Z,8.02
2023-04-14T23:20:43.570Z,8.07
2023-04-14T23:23:20.566Z,8.07
2023-04-14T23:25:54.399Z,8.12
2023-04-14T23:28:26.031Z,8.08
2023-04-14T23:30:59.759Z,8.10
2023-04-14T23:33:32.078Z,8.14
2023-04-14T23:36:03.029Z,8.11
2023-04-14T23:38:33.648Z,8.20
2023-04-14T23:41:04.928Z,8.19
2023-04-14T23:43:35.608Z,8.16
2023-04-14T23:46:06.442Z,8.23
2023-04-14T23:48:38.075Z,8.08
2023-04-14T23:51:18.118Z,8.06
2023-04-14T23:53:45.317Z,8.14
2023-04-14T23:56:17.744Z,8.14
2023-04-14T23:58:48.537Z,8.12
